createdAt,value
2023-03-19T00:01:46.581Z,9.1
2023-03-19T00:06:21.088Z,9.0
2023-03-19T00:11:13.449Z,9.0
2023-03-19T00:17:03.913Z,9.0
2023-03-19T00:21:46.240Z,8.9
2023-03-19T00:26:32.673Z,8.9
2023-03-19T00:31:39.163Z,8.9
2023-03-19T00:36:45.584Z,8.9
2023-03-19T00:41:51.931Z,8.9
2023-03-19T00:46:58.320Z,8.9
2023-03-19T00:52:24.766Z,8.9
2023-03-19T00:57:35.146Z,8.9
2023-03-19T01:02:17.486Z,8.9
2023-03-19T01:07:23.965Z,9.0
2023-03-19T01:12:30.476Z,9.0
2023-03-19T01:17:36.952Z,9.1
2023-03-19T01:22:43.327Z,9.1
2023-03-19T01:28:49.889Z,9.2
2023-03-19T01:33:20.199Z,9.2
2023-03-19T01:38:02.565Z,9.2
2023-03-19T01:43:08.931Z,9.3
2023-03-19T01:48:15.330Z,9.3
2023-03-19T01:53:21.699Z,9.3
2023-03-19T02:01:12.542Z,9.4
2023-03-19T02:06:18.945Z,9.4
2023-03-19T02:08:41.026Z,9.5
2023-03-19T02:14:31.490Z,9.5
2023-03-19T02:19:13.817Z,9.5
2023-03-19T02:24:00.185Z,9.5
2023-03-19T02:29:30.593Z,9.6
2023-03-19T02:34:37.066Z,9.6
2023-03-19T02:39:19.421Z,9.6
2023-03-19T03:04:51.341Z,9.7
2023-03-19T03:09:57.745Z,9.7
2023-03-19T03:15:04.107Z,9.7
2023-03-19T03:20:10.497Z,9.7
2023-03-19T03:36:13.706Z,9.7
2023-03-19T03:40:40.061Z,9.7
2023-03-19T03:51:12.954Z,9.7
2023-03-19T03:55:55.528Z,9.7
2023-03-19T04:01:01.908Z,9.6
2023-03-19T04:06:28.314Z,9.6
2023-03-19T04:11:14.681Z,9.6
2023-03-19T04:17:05.181Z,9.6
2023-03-19T04:22:39.635Z,9.6
2023-03-19T04:26:33.896Z,9.6
2023-03-19T04:32:24.463Z,9.6
2023-03-19T04:37:07.002Z,9.6
2023-03-19T04:42:07.406Z,9.5
2023-03-19T04:46:59.744Z,9.5
2023-03-19T04:52:06.131Z,9.5
2023-03-19T04:58:24.633Z,9.5
2023-03-19T05:02:42.961Z,9.5
2023-03-19T05:07:25.618Z,9.5
2023-03-19T05:12:32.102Z,9.5
2023-03-19T05:17:38.737Z,9.5
2023-03-19T05:22:45.102Z,9.5
2023-03-19T05:27:51.542Z,9.5
2023-03-19T05:32:57.994Z,9.5
2023-03-19T05:38:04.329Z,9.5
2023-03-19T05:43:34.736Z,9.5
2023-03-19T05:58:30.088Z,9.6
2023-03-19T06:03:36.522Z,9.6
2023-03-19T06:09:06.995Z,9.6
2023-03-19T06:24:22.186Z,9.7
2023-03-19T06:29:08.604Z,9.7
2023-03-19T06:34:14.989Z,9.8
2023-03-19T06:39:21.370Z,9.8
2023-03-19T06:44:27.758Z,9.9
2023-03-19T07:00:10.947Z,10.0
2023-03-19T07:04:53.244Z,10.1
2023-03-19T07:09:59.623Z,10.1
2023-03-19T07:15:06.162Z,10.2
2023-03-19T07:20:12.576Z,10.3
2023-03-19T07:25:18.936Z,10.3
2023-03-19T07:31:09.397Z,10.3
2023-03-19T07:45:44.722Z,10.4
2023-03-19T07:50:51.167Z,10.5
2023-03-19T07:55:57.690Z,10.6
2023-03-19T08:22:32.262Z,10.9
2023-03-19T08:27:34.669Z,11.1
2023-03-19T08:32:45.118Z,11.2
2023-03-19T08:37:27.402Z,11.4
2023-03-19T08:47:40.297Z,11.8
2023-03-19T08:57:53.019Z,11.9
2023-03-19T09:02:59.582Z,12.0
2023-03-19T09:09:06.031Z,12.0
2023-03-19T09:13:12.499Z,12.1
2023-03-19T09:18:18.963Z,12.2
2023-03-19T09:23:25.348Z,12.3
2023-03-19T09:28:31.727Z,12.4
2023-03-19T09:33:38.157Z,12.5
2023-03-19T09:39:04.553Z,12.7
2023-03-19T09:43:50.884Z,12.7
2023-03-19T09:49:41.429Z,12.8
2023-03-19T09:54:03.713Z,13.0
2023-03-19T09:59:11.654Z,13.4
2023-03-19T10:04:18.132Z,13.9
2023-03-19T10:09:24.461Z,14.5
2023-03-19T10:14:30.810Z,15.2
2023-03-19T10:19:40.676Z,15.9
2023-03-19T10:24:45.200Z,16.7
2023-03-19T10:29:51.509Z,17.3
2023-03-19T10:34:57.893Z,17.6
2023-03-19T10:40:28.343Z,17.6
2023-03-19T10:45:35.389Z,17.5
2023-03-19T10:50:18.685Z,17.5
2023-03-19T10:55:45.124Z,17.3
2023-03-19T11:00:31.370Z,17.2
2023-03-19T11:06:01.830Z,17.2
2023-03-19T11:10:44.181Z,17.4
2023-03-19T11:20:56.936Z,18.6
2023-03-19T11:26:03.316Z,19.3
2023-03-19T11:31:09.864Z,20.2
2023-03-19T11:36:16.219Z,21.1
2023-03-19T11:52:10.444Z,23.6
2023-03-19T11:57:40.872Z,24.2
2023-03-19T12:02:43.395Z,24.7
2023-03-19T12:12:36.249Z,25.3
2023-03-19T12:17:42.646Z,25.4
2023-03-19T12:22:49.043Z,25.3
2023-03-19T12:28:21.034Z,25.1
2023-03-19T12:33:02.437Z,24.8
2023-03-19T12:43:16.137Z,24.0
2023-03-19T12:48:24.080Z,23.6
2023-03-19T12:58:38.439Z,22.9
2023-03-19T13:03:44.783Z,22.6
2023-03-19T13:09:11.193Z,22.4
2023-03-19T13:13:57.582Z,22.1
2023-03-19T13:19:27.972Z,22.0
2023-03-19T13:29:17.388Z,22.1
2023-03-19T13:34:23.718Z,22.2
2023-03-19T13:39:30.165Z,22.3
2023-03-19T13:44:36.549Z,22.5
2023-03-19T13:49:43.074Z,22.8
2023-03-19T13:55:13.501Z,23.0
2023-03-19T13:59:55.881Z,23.2
2023-03-19T14:05:02.290Z,23.3
2023-03-19T14:10:08.811Z,23.4
2023-03-19T14:15:17.690Z,23.4
2023-03-19T14:20:26.660Z,23.4
2023-03-19T14:25:28.006Z,23.5
2023-03-19T14:30:34.656Z,23.7
2023-03-19T14:35:40.808Z,23.8
2023-03-19T14:40:47.169Z,24.0
2023-03-19T14:45:53.586Z,24.1
2023-03-19T14:51:23.995Z,24.1
2023-03-19T14:56:06.330Z,24.0
2023-03-19T15:01:36.929Z,23.8
2023-03-19T15:06:09.070Z,23.7
2023-03-19T15:11:49.705Z,23.5
2023-03-19T15:16:32.285Z,23.3
2023-03-19T15:21:38.674Z,23.1
2023-03-19T15:26:45.015Z,22.8
2023-03-19T15:32:04.527Z,22.5
2023-03-19T15:36:59.366Z,22.2
2023-03-19T15:42:33.330Z,21.9
2023-03-19T15:52:24.891Z,21.4
2023-03-19T15:57:55.105Z,21.2
2023-03-19T16:02:38.457Z,21.0
2023-03-19T16:08:18.953Z,20.6
2023-03-19T16:13:49.451Z,20.6
2023-03-19T16:18:32.692Z,20.4
2023-03-19T16:23:39.124Z,20.2
2023-03-19T16:28:45.615Z,19.9
2023-03-19T16:33:51.919Z,19.6
2023-03-19T16:38:58.442Z,19.4
2023-03-19T16:43:54.950Z,19.1
2023-03-19T16:49:01.214Z,18.9
2023-03-19T16:54:17.621Z,18.6
2023-03-19T17:10:53.557Z,17.9
2023-03-19T17:19:24.390Z,17.7
2023-03-19T17:21:05.359Z,17.5
2023-03-19T17:26:40.837Z,17.4
2023-03-19T17:36:49.260Z,17.0
2023-03-19T17:41:35.853Z,16.8
2023-03-19T17:52:31.770Z,16.2
2023-03-19T18:00:51.910Z,16.2
2023-03-19T18:04:03.127Z,15.8
2023-03-19T18:09:10.446Z,15.8
2023-03-19T18:14:16.835Z,15.6
2023-03-19T18:19:46.786Z,15.5
2023-03-19T18:24:37.194Z,15.3
2023-03-19T18:30:03.612Z,15.1
2023-03-19T18:35:06.026Z,14.9
2023-03-19T18:39:54.185Z,14.7
2023-03-19T18:45:04.365Z,14.5
2023-03-19T18:50:08.342Z,14.4
2023-03-19T19:00:21.127Z,14.1
2023-03-19T19:05:27.641Z,14.0
2023-03-19T19:16:02.648Z,13.8
2023-03-19T19:21:03.018Z,13.6
2023-03-19T19:25:55.558Z,13.5
2023-03-19T19:31:02.000Z,13.3
2023-03-19T19:36:08.348Z,13.1
2023-03-19T19:41:04.862Z,13.0
2023-03-19T19:46:21.325Z,12.8
2023-03-19T19:51:27.625Z,12.7
2023-03-19T19:57:02.109Z,12.5
2023-03-19T20:01:40.464Z,12.4
2023-03-19T20:07:10.835Z,12.2
2023-03-19T20:12:13.238Z,12.1
2023-03-19T20:17:00.810Z,11.9
2023-03-19T20:23:07.420Z,11.8
2023-03-19T20:27:13.768Z,11.6
2023-03-19T20:32:44.285Z,11.5
2023-03-19T20:37:26.544Z,11.3
2023-03-19T20:42:52.965Z,11.2
2023-03-19T20:47:29.290Z,11.1
2023-03-19T20:52:45.867Z,11.0
2023-03-19T20:57:51.064Z,10.9
2023-03-19T21:02:58.613Z,10.7
2023-03-19T21:08:04.973Z,10.6
2023-03-19T21:13:11.349Z,10.5
2023-03-19T21:18:21.305Z,10.4
2023-03-19T21:23:27.692Z,10.3
2023-03-19T21:28:34.048Z,10.2
2023-03-19T21:33:40.431Z,10.2
2023-03-19T21:49:24.262Z,10.0
2023-03-19T21:59:13.129Z,9.9
2023-03-19T22:04:19.599Z,9.8
2023-03-19T22:09:26.459Z,9.8
2023-03-19T22:14:32.990Z,9.8
2023-03-19T22:19:39.469Z,9.7
2023-03-19T22:24:45.878Z,9.7
2023-03-19T22:29:52.334Z,9.7
2023-03-19T22:34:58.714Z,9.7
2023-03-19T22:40:05.130Z,9.7
2023-03-19T22:45:11.532Z,9.7
2023-03-19T22:55:24.449Z,9.6
2023-03-19T23:00:30.870Z,9.6
2023-03-19T23:05:57.328Z,9.6
2023-03-19T23:11:59.306Z,9.6
2023-03-19T23:15:53.585Z,9.5
2023-03-19T23:21:00.482Z,9.5
2023-03-19T23:26:06.940Z,9.4
2023-03-19T23:31:13.353Z,9.4
2023-03-19T23:36:19.743Z,9.4
2023-03-19T23:41:26.127Z,9.3
2023-03-19T23:46:56.577Z,9.3
2023-03-19T23:51:38.912Z,9.3
2023-03-19T23:56:51.690Z,9.3
